Time;durP1;ratioP1;P1;durP2;ratioP2;P2;SDS_P1;SDS_P2;PMS_P1;PMS_P2;Temp;Humidity;BMP_temperature;BMP_pressure;BME280_temperature;BME280_humidity;BME280_pressure;Samples;Min_cycle;Max_cycle;Signal;HPM_P1;HPM_P2
2021/04/15 00:00:21;;;;;;;49.30;23.58;;;-0.60;99.90;;;;;;4895944;29;20064;-81
2021/04/15 00:02:48;;;;;;;43.75;23.83;;;-0.70;99.90;;;;;;4877256;29;20054;-80
2021/04/15 00:05:27;;;;;;;45.63;24.02;;;-0.80;99.90;;;;;;4874302;29;20412;-81
2021/04/15 00:07:54;;;;;;;43.95;24.27;;;-0.70;99.90;;;;;;4876136;29;20045;-80
2021/04/15 00:10:30;;;;;;;49.47;24.50;;;-0.70;99.90;;;;;;4860614;29;20083;-81
2021/04/15 00:12:58;;;;;;;50.38;24.42;;;-0.70;99.90;;;;;;4876859;29;20104;-80
2021/04/15 00:15:26;;;;;;;48.17;24.88;;;-0.70;99.90;;;;;;4904743;29;20060;-81
2021/04/15 00:17:53;;;;;;;48.88;24.77;;;-0.70;99.90;;;;;;4876471;29;20048;-82
2021/04/15 00:20:22;;;;;;;35.92;20.88;;;-0.90;99.90;;;;;;4890559;29;20416;-81
2021/04/15 00:22:48;;;;;;;38.45;21.45;;;-1.10;99.90;;;;;;4878365;29;20143;-81
2021/04/15 00:25:15;;;;;;;39.33;19.90;;;-1.10;99.90;;;;;;4893954;29;20439;-83
2021/04/15 00:27:42;;;;;;;36.22;20.60;;;-1.10;99.90;;;;;;4893965;29;20050;-83
2021/04/15 00:30:10;;;;;;;44.13;23.33;;;-1.20;99.90;;;;;;4893642;29;20049;-81
2021/04/15 00:32:37;;;;;;;44.28;23.42;;;-1.30;99.90;;;;;;4879774;29;20057;-81
2021/04/15 00:35:04;;;;;;;40.38;23.67;;;-1.40;99.90;;;;;;4876523;29;20045;-80
2021/04/15 00:37:31;;;;;;;44.30;24.05;;;-1.30;99.90;;;;;;4864841;29;20066;-81
2021/04/15 00:39:57;;;;;;;49.25;25.52;;;-1.40;99.90;;;;;;4859546;29;20137;-80
2021/04/15 00:42:24;;;;;;;45.78;23.02;;;-1.40;99.90;;;;;;4874628;29;20089;-80
2021/04/15 00:45:08;;;;;;;47.78;24.20;;;-1.50;99.90;;;;;;4859704;29;20068;-79
2021/04/15 00:47:34;;;;;;;55.55;25.33;;;-1.40;99.90;;;;;;4861366;29;20063;-81
2021/04/15 00:50:07;;;;;;;46.20;24.77;;;-1.40;99.90;;;;;;4893491;29;20059;-81
2021/04/15 00:52:47;;;;;;;48.15;24.35;;;-1.40;99.90;;;;;;4878965;29;20071;-80
2021/04/15 00:55:21;;;;;;;50.40;26.02;;;-1.30;99.90;;;;;;4875378;29;20461;-80
2021/04/15 00:57:49;;;;;;;51.58;26.73;;;-1.20;99.90;;;;;;4862549;29;20044;-81
2021/04/15 01:00:22;;;;;;;55.33;27.88;;;-1.10;99.90;;;;;;4914568;29;20064;-81
2021/04/15 01:02:49;;;;;;;51.83;27.85;;;-1.10;99.90;;;;;;4888885;29;20056;-80
2021/04/15 01:05:46;;;;;;;52.50;28.70;;;-1.10;99.90;;;;;;4898663;29;20033;-83
2021/04/15 01:08:13;;;;;;;54.63;27.77;;;-1.10;99.90;;;;;;4906856;29;20075;-82
2021/04/15 01:10:43;;;;;;;60.35;27.88;;;-1.20;99.90;;;;;;4896158;29;20049;-81
2021/04/15 01:13:25;;;;;;;56.95;28.08;;;-1.10;99.90;;;;;;4864477;29;20479;-82
2021/04/15 01:16:24;;;;;;;55.88;28.90;;;-1.10;99.90;;;;;;4914404;29;20057;-84
2021/04/15 01:19:22;;;;;;;57.35;29.65;;;-0.90;99.90;;;;;;4897284;29;20068;-83
2021/04/15 01:22:27;;;;;;;58.90;29.33;;;-1.00;99.90;;;;;;4916340;29;20041;-80
2021/04/15 01:25:10;;;;;;;52.17;27.55;;;-1.00;99.90;;;;;;4908297;29;20044;-81
2021/04/15 01:27:49;;;;;;;47.50;24.05;;;-0.90;99.90;;;;;;4912402;29;20064;-81
2021/04/15 01:30:45;;;;;;;46.83;24.95;;;-0.90;99.90;;;;;;4912518;29;20056;-81
2021/04/15 01:33:16;;;;;;;45.33;24.38;;;-0.80;99.90;;;;;;4875988;29;20064;-79
2021/04/15 01:35:53;;;;;;;49.28;24.05;;;-0.80;99.90;;;;;;4873904;29;20056;-79
2021/04/15 01:38:31;;;;;;;60.67;27.63;;;-0.70;99.90;;;;;;4882872;29;20128;-81
2021/04/15 01:41:35;;;;;;;94.20;34.97;;;-0.70;99.90;;;;;;4897039;29;20427;-80
2021/04/15 01:44:08;;;;;;;57.08;26.50;;;-0.50;99.90;;;;;;4878435;29;20084;-80
2021/04/15 01:46:38;;;;;;;50.00;26.13;;;-0.60;99.90;;;;;;4867934;29;20063;-80
2021/04/15 01:49:07;;;;;;;51.75;24.65;;;-0.60;99.90;;;;;;4889327;29;20101;-79
2021/04/15 01:51:41;;;;;;;56.70;27.83;;;-0.60;99.90;;;;;;4888101;29;20056;-80
2021/04/15 01:54:28;;;;;;;;;;;-0.60;99.90;;;;;;4860678;29;20053;-80
2021/04/15 01:57:07;;;;;;;60.72;31.23;;;-0.60;99.90;;;;;;4891212;29;20416;-80
2021/04/15 01:59:44;;;;;;;147.50;39.00;;;-0.50;99.90;;;;;;4892287;29;20049;-81
2021/04/15 02:02:26;;;;;;;163.00;42.10;;;-0.50;99.90;;;;;;4891271;29;20061;-79
2021/04/15 02:05:20;;;;;;;467.50;67.05;;;-0.60;99.90;;;;;;4890383;29;20049;-80
2021/04/15 02:07:52;;;;;;;380.90;60.70;;;-0.60;99.90;;;;;;4881527;29;20104;-79
2021/04/15 02:10:20;;;;;;;467.92;66.70;;;-0.60;99.90;;;;;;4872106;29;20052;-80
2021/04/15 02:12:51;;;;;;;541.08;79.85;;;-0.60;99.90;;;;;;4857821;29;20065;-80
2021/04/15 02:15:43;;;;;;;421.70;67.68;;;-0.30;99.90;;;;;;4885665;29;20550;-81
2021/04/15 02:18:12;;;;;;;924.47;121.97;;;-0.30;99.90;;;;;;4857985;29;20512;-79
2021/04/15 02:20:38;;;;;;;629.30;95.10;;;-0.40;99.90;;;;;;4851584;29;20150;-79
2021/04/15 02:23:29;;;;;;;362.98;68.90;;;-0.30;99.90;;;;;;4902816;29;20093;-78
2021/04/15 02:26:20;;;;;;;998.63;138.98;;;-0.20;99.90;;;;;;4860044;29;20105;-79
2021/04/15 02:29:15;;;;;;;605.00;91.30;;;-0.40;99.90;;;;;;4896224;29;20044;-79
2021/04/15 02:31:53;;;;;;;532.03;80.63;;;-0.50;99.90;;;;;;4896821;29;20144;-79
2021/04/15 02:34:45;;;;;;;697.35;101.15;;;-0.50;99.90;;;;;;4884926;29;20057;-79
2021/04/15 02:37:16;;;;;;;529.47;81.63;;;-0.40;99.90;;;;;;4866403;29;20512;-79
2021/04/15 02:39:47;;;;;;;347.92;65.82;;;-0.50;99.90;;;;;;4864709;29;20691;-79
2021/04/15 02:42:25;;;;;;;371.67;69.45;;;-0.50;99.90;;;;;;4861554;29;20583;-79
2021/04/15 02:44:58;;;;;;;408.35;70.85;;;-0.50;99.90;;;;;;4878184;29;20048;-78
2021/04/15 02:47:37;;;;;;;327.77;66.00;;;-0.50;99.90;;;;;;4895041;29;20063;-79
2021/04/15 02:50:10;;;;;;;349.35;62.22;;;-0.50;99.90;;;;;;4865324;29;20068;-79
2021/04/15 02:52:41;;;;;;;316.35;62.05;;;-0.60;99.90;;;;;;4894709;29;20055;-79
2021/04/15 02:55:13;;;;;;;290.25;61.90;;;-0.60;99.90;;;;;;4864047;29;20049;-79
2021/04/15 02:57:47;;;;;;;365.42;73.47;;;-0.70;99.90;;;;;;4891385;29;20069;-80
2021/04/15 03:00:31;;;;;;;355.00;73.72;;;-0.60;99.90;;;;;;4879226;29;20210;-79
2021/04/15 03:03:05;;;;;;;285.10;63.13;;;-0.60;99.90;;;;;;4865255;29;20485;-80
2021/04/15 03:05:54;;;;;;;314.52;65.47;;;-0.70;99.90;;;;;;4879873;29;20049;-79
2021/04/15 03:08:24;;;;;;;345.58;67.43;;;-0.80;99.90;;;;;;4875975;29;20052;-79
2021/04/15 03:10:57;;;;;;;400.92;72.95;;;-0.80;99.90;;;;;;4876230;29;20065;-79
2021/04/15 03:13:34;;;;;;;537.10;87.43;;;-0.80;99.90;;;;;;4871307;29;20081;-79
2021/04/15 03:16:05;;;;;;;332.38;66.85;;;-0.80;99.90;;;;;;4889825;29;20144;-79
2021/04/15 03:18:46;;;;;;;409.92;77.00;;;-0.70;99.90;;;;;;4859814;29;20073;-79
2021/04/15 03:21:15;;;;;;;363.58;73.70;;;-0.70;99.90;;;;;;4890854;29;20105;-79
2021/04/15 03:23:57;;;;;;;325.77;71.80;;;-0.70;99.90;;;;;;4859941;29;20101;-79
2021/04/15 03:26:54;;;;;;;532.75;83.97;;;-0.70;99.90;;;;;;4890938;29;20053;-80
2021/04/15 03:29:34;;;;;;;1393.05;199.27;;;-0.80;99.90;;;;;;4881351;29;20048;-79
2021/04/15 03:32:12;;;;;;;400.27;72.18;;;-0.80;99.90;;;;;;4904155;29;20120;-80
2021/04/15 03:34:52;;;;;;;427.50;70.70;;;-0.80;99.90;;;;;;4904813;29;20405;-80
2021/04/15 03:37:28;;;;;;;357.50;67.05;;;-0.90;99.90;;;;;;4890421;29;20049;-79
2021/04/15 03:39:56;;;;;;;337.92;66.43;;;-0.90;99.90;;;;;;4882177;29;20057;-80
2021/04/15 03:42:41;;;;;;;430.02;75.75;;;-0.90;99.90;;;;;;4876155;29;20059;-80
2021/04/15 03:45:13;;;;;;;;;;;-0.90;99.90;;;;;;4894416;29;20049;-79
2021/04/15 03:47:46;;;;;;;589.33;93.97;;;-0.90;99.90;;;;;;4860691;29;19923;-80
2021/04/15 03:50:18;;;;;;;969.20;135.55;;;-1.00;99.90;;;;;;4878422;29;20113;-79
2021/04/15 03:52:49;;;;;;;349.83;74.07;;;-1.10;99.90;;;;;;4874386;29;20053;-79
2021/04/15 03:55:35;;;;;;;476.58;74.50;;;-1.10;99.90;;;;;;4857897;29;20045;-79
2021/04/15 03:58:12;;;;;;;538.60;86.45;;;-1.10;99.90;;;;;;4861348;29;20063;-80
2021/04/15 04:00:44;;;;;;;569.42;81.60;;;-1.20;99.90;;;;;;4896238;29;20045;-79
2021/04/15 04:03:17;;;;;;;414.48;77.22;;;-1.20;99.90;;;;;;4892660;29;20052;-80
2021/04/15 04:06:09;;;;;;;633.63;93.57;;;-1.20;99.90;;;;;;4906778;29;20057;-79
2021/04/15 04:08:45;;;;;;;439.00;81.93;;;-1.20;99.90;;;;;;4877794;29;20147;-80
2021/04/15 04:11:17;;;;;;;483.92;77.78;;;-1.20;99.90;;;;;;4892363;29;20084;-79
2021/04/15 04:13:48;;;;;;;536.92;95.95;;;-1.30;99.90;;;;;;4893679;29;20345;-79
2021/04/15 04:16:30;;;;;;;601.72;93.60;;;-1.20;99.90;;;;;;4876655;29;20112;-79
2021/04/15 04:19:01;;;;;;;602.88;93.13;;;-1.30;99.90;;;;;;4877062;29;20104;-79
2021/04/15 04:21:52;;;;;;;536.40;87.40;;;-1.30;99.90;;;;;;4908396;29;20052;-79
2021/04/15 04:24:31;;;;;;;494.48;81.38;;;-1.40;99.90;;;;;;4908495;29;20084;-80
2021/04/15 04:27:05;;;;;;;401.35;66.10;;;-1.40;99.90;;;;;;4875893;29;20423;-80
2021/04/15 04:29:55;;;;;;;492.20;78.90;;;-1.50;99.90;;;;;;4888604;29;20124;-80
2021/04/15 04:32:24;;;;;;;499.63;83.43;;;-1.50;99.90;;;;;;4877777;29;20057;-80
2021/04/15 04:34:57;;;;;;;341.42;74.78;;;-1.50;99.90;;;;;;4881716;29;20049;-80
2021/04/15 04:37:39;;;;;;;437.20;84.32;;;-1.50;99.90;;;;;;4890893;29;20055;-80
2021/04/15 04:40:11;;;;;;;528.42;92.90;;;-1.40;99.90;;;;;;4888530;29;20061;-80
2021/04/15 04:42:45;;;;;;;462.25;84.05;;;-1.40;99.90;;;;;;4872669;29;20584;-80
2021/04/15 04:45:16;;;;;;;358.45;76.20;;;-1.40;99.90;;;;;;4842683;29;20048;-79
2021/04/15 04:48:00;;;;;;;401.98;73.03;;;-1.40;99.90;;;;;;4862578;29;20071;-79
2021/04/15 04:50:46;;;;;;;461.67;79.50;;;-1.50;99.90;;;;;;4876522;29;20135;-80
2021/04/15 04:53:23;;;;;;;372.42;75.25;;;-1.50;99.90;;;;;;4891884;29;20363;-80
2021/04/15 04:56:13;;;;;;;375.70;65.68;;;-1.40;99.90;;;;;;4889663;29;20065;-80
2021/04/15 04:58:40;;;;;;;323.02;67.50;;;-1.50;99.90;;;;;;4899375;29;20083;-80
2021/04/15 05:01:07;;;;;;;442.35;81.82;;;-1.40;99.90;;;;;;4859035;29;20057;-79
2021/04/15 05:03:34;;;;;;;291.98;66.32;;;-1.40;99.90;;;;;;4886182;29;20075;-78
2021/04/15 05:06:06;;;;;;;466.65;75.50;;;-1.40;99.90;;;;;;4843940;29;20508;-80
2021/04/15 05:08:45;;;;;;;431.58;80.00;;;-1.40;99.90;;;;;;4892776;29;20101;-79
2021/04/15 05:11:11;;;;;;;372.02;74.72;;;-1.40;99.90;;;;;;4876560;29;20419;-79
2021/04/15 05:13:39;;;;;;;443.52;84.10;;;-1.40;99.90;;;;;;4871879;29;20412;-79
2021/04/15 05:16:06;;;;;;;480.58;75.93;;;-1.50;99.90;;;;;;4893075;29;20053;-79
2021/04/15 05:18:33;;;;;;;1077.80;159.60;;;-1.50;99.90;;;;;;4881910;29;20055;-79
2021/04/15 05:21:13;;;;;;;538.38;95.22;;;-1.60;99.90;;;;;;4867782;29;20507;-79
2021/04/15 05:23:48;;;;;;;355.85;79.32;;;-1.60;99.90;;;;;;4886683;29;20045;-78
2021/04/15 05:26:21;;;;;;;463.50;83.57;;;-1.70;99.90;;;;;;4886021;29;20049;-79
2021/04/15 05:28:51;;;;;;;297.87;70.83;;;-1.70;99.90;;;;;;4870520;29;20052;-79
2021/04/15 05:31:21;;;;;;;279.52;69.30;;;-1.80;99.90;;;;;;4880678;29;20083;-79
2021/04/15 05:33:49;;;;;;;588.45;104.68;;;-1.60;99.90;;;;;;4879333;29;20068;-79
2021/04/15 05:36:30;;;;;;;364.05;77.78;;;-1.50;99.90;;;;;;4888342;29;20060;-78
2021/04/15 05:39:00;;;;;;;378.63;72.97;;;-1.50;99.90;;;;;;4898890;29;20218;-80
2021/04/15 05:41:46;;;;;;;777.35;122.85;;;-1.40;99.90;;;;;;4871604;29;20079;-79
2021/04/15 05:44:27;;;;;;;400.92;79.45;;;-1.30;99.90;;;;;;4873713;29;20061;-79
2021/04/15 05:46:54;;;;;;;459.38;79.75;;;-1.30;99.90;;;;;;4871241;29;20049;-78
2021/04/15 05:49:36;;;;;;;444.02;82.63;;;-1.20;99.90;;;;;;4857885;29;20049;-79
2021/04/15 05:52:35;;;;;;;437.85;90.45;;;-1.20;99.90;;;;;;4880479;29;20052;-79
2021/04/15 05:55:05;;;;;;;468.95;84.78;;;-1.30;99.90;;;;;;4861116;29;20068;-79
2021/04/15 05:57:38;;;;;;;610.45;103.88;;;-1.30;99.90;;;;;;4909249;29;20057;-78
2021/04/15 06:00:20;;;;;;;538.15;92.22;;;-1.10;99.90;;;;;;4893070;29;20053;-79
2021/04/15 06:02:52;;;;;;;613.28;103.95;;;-1.10;99.90;;;;;;4882286;29;20118;-79
2021/04/15 06:05:29;;;;;;;554.88;94.13;;;-1.10;99.90;;;;;;4892691;29;20083;-79
2021/04/15 06:08:01;;;;;;;566.33;89.55;;;-1.00;99.90;;;;;;4883120;29;20040;-80
2021/04/15 06:10:31;;;;;;;481.73;86.10;;;-1.00;99.90;;;;;;4897743;29;20071;-78
2021/04/15 06:13:04;;;;;;;438.88;86.20;;;-1.00;99.90;;;;;;4882981;29;20086;-78
2021/04/15 06:15:57;;;;;;;642.15;115.22;;;-1.00;99.90;;;;;;4882742;29;20103;-78
2021/04/15 06:18:26;;;;;;;817.03;126.90;;;-1.00;99.90;;;;;;4857950;29;20052;-79
2021/04/15 06:20:59;;;;;;;733.72;117.03;;;-0.80;99.90;;;;;;4914054;29;20075;-81
2021/04/15 06:23:35;;;;;;;872.47;131.00;;;-0.80;99.90;;;;;;4892416;29;20109;-80
2021/04/15 06:26:04;;;;;;;851.92;133.98;;;-0.80;99.90;;;;;;4890037;29;20052;-79
2021/04/15 06:28:42;;;;;;;706.83;116.40;;;-0.80;99.90;;;;;;4897716;29;20041;-81
2021/04/15 06:31:16;;;;;;;366.48;89.75;;;-0.80;99.90;;;;;;4901618;29;20062;-79
2021/04/15 06:33:44;;;;;;;500.17;88.32;;;-0.60;99.90;;;;;;4895173;29;20063;-79
2021/04/15 06:36:27;;;;;;;750.13;128.68;;;-0.60;99.90;;;;;;4886067;29;20088;-78
2021/04/15 06:39:14;;;;;;;775.55;121.10;;;-0.70;99.90;;;;;;4858968;29;20113;-79
2021/04/15 06:42:19;;;;;;;633.10;106.45;;;-0.60;99.90;;;;;;4859858;29;20281;-79
2021/04/15 06:45:17;;;;;;;1109.65;165.27;;;-0.60;99.90;;;;;;4874969;29;20049;-79
2021/04/15 06:48:08;;;;;;;762.17;120.00;;;-0.50;99.90;;;;;;4862880;29;20061;-81
2021/04/15 06:50:43;;;;;;;725.58;111.45;;;-0.40;99.90;;;;;;4864897;29;20056;-78
2021/04/15 06:53:21;;;;;;;927.55;144.35;;;-0.30;99.90;;;;;;4881442;29;20658;-79
2021/04/15 06:56:09;;;;;;;581.50;108.97;;;-0.10;99.90;;;;;;4853465;29;20049;-79
2021/04/15 06:58:47;;;;;;;325.90;69.43;;;-0.20;99.90;;;;;;4884336;29;20056;-82
2021/04/15 07:01:31;;;;;;;497.70;94.07;;;-0.20;99.90;;;;;;4876765;29;20136;-80
2021/04/15 07:04:45;;;;;;;478.83;92.95;;;-0.20;99.90;;;;;;4899082;29;20051;-80
2021/04/15 07:07:30;;;;;;;412.55;80.28;;;-0.10;99.90;;;;;;4846747;29;20053;-79
2021/04/15 07:10:24;;;;;;;1014.00;162.02;;;-0.10;99.90;;;;;;4880693;29;20698;-82
2021/04/15 07:13:30;;;;;;;913.10;126.68;;;0.00;99.90;;;;;;4869933;29;20065;-79
2021/04/15 07:16:13;;;;;;;403.70;83.20;;;0.20;99.90;;;;;;4887979;29;20057;-80
2021/04/15 07:19:14;;;;;;;637.08;96.40;;;0.40;99.90;;;;;;4886664;29;20049;-81
2021/04/15 07:22:21;;;;;;;522.78;94.18;;;0.40;99.90;;;;;;4885358;29;20049;-79
2021/04/15 07:25:02;;;;;;;582.05;98.13;;;0.40;99.90;;;;;;4870640;29;20100;-80
2021/04/15 07:28:15;;;;;;;224.18;58.28;;;0.30;99.90;;;;;;4867650;29;20424;-81
2021/04/15 07:31:05;;;;;;;1635.53;223.05;;;0.50;99.90;;;;;;4873868;29;20045;-81
2021/04/15 07:33:54;;;;;;;256.35;52.83;;;0.70;99.90;;;;;;4879540;29;20063;-80
2021/04/15 07:36:36;;;;;;;1419.70;193.60;;;0.70;99.90;;;;;;4866811;29;20515;-79
2021/04/15 07:39:40;;;;;;;1419.80;204.32;;;0.70;99.90;;;;;;4881900;29;20057;-79
2021/04/15 07:42:13;;;;;;;929.42;139.77;;;0.70;99.90;;;;;;4854943;29;20183;-77
2021/04/15 07:45:09;;;;;;;737.22;112.07;;;0.80;99.90;;;;;;4872905;29;20052;-77
2021/04/15 07:48:00;;;;;;;939.47;136.93;;;0.80;99.90;;;;;;4865764;29;20128;-76
2021/04/15 07:51:04;;;;;;;265.80;57.25;;;1.10;99.90;;;;;;4877798;29;20057;-77
2021/04/15 07:53:45;;;;;;;282.58;62.15;;;1.40;99.90;;;;;;4895524;29;20065;-77
2021/04/15 07:56:49;;;;;;;899.58;136.07;;;1.60;99.90;;;;;;4873148;29;20133;-78
2021/04/15 07:59:45;;;;;;;1002.72;144.18;;;1.60;99.90;;;;;;4881652;29;20064;-77
2021/04/15 08:02:28;;;;;;;1145.68;172.48;;;1.90;99.90;;;;;;4890798;29;20076;-77
2021/04/15 08:05:35;;;;;;;570.03;90.38;;;1.90;99.90;;;;;;4889601;29;20065;-77
2021/04/15 08:08:07;;;;;;;933.95;138.43;;;2.20;99.90;;;;;;4884944;29;20139;-72
2021/04/15 08:11:04;;;;;;;187.77;48.83;;;2.20;99.90;;;;;;4890869;29;20049;-72
2021/04/15 08:14:08;;;;;;;1430.38;207.38;;;2.40;99.90;;;;;;4887776;29;20137;-70
2021/04/15 08:16:53;;;;;;;429.05;84.25;;;2.50;99.90;;;;;;4872843;29;20057;-73
2021/04/15 08:19:38;;;;;;;1046.07;151.18;;;2.70;99.90;;;;;;4889130;29;20048;-73
2021/04/15 08:22:23;;;;;;;99.00;47.38;;;2.80;99.90;;;;;;4871990;29;20244;-73
2021/04/15 08:25:14;;;;;;;91.13;44.65;;;3.10;99.90;;;;;;4891372;29;20056;-70
2021/04/15 08:27:59;;;;;;;69.25;35.63;;;3.20;99.90;;;;;;4869944;29;20056;-72
2021/04/15 08:31:00;;;;;;;63.70;34.88;;;3.40;99.90;;;;;;4872978;29;20055;-72
2021/04/15 08:33:47;;;;;;;120.65;40.03;;;3.60;99.90;;;;;;4868440;29;20420;-72
2021/04/15 08:36:51;;;;;;;163.57;43.05;;;4.00;99.90;;;;;;4886660;29;20054;-70
2021/04/15 08:39:32;;;;;;;378.70;62.05;;;4.30;99.90;;;;;;4881400;29;20105;-72
2021/04/15 08:42:08;;;;;;;804.70;107.38;;;4.50;99.90;;;;;;4856624;29;20468;-70
2021/04/15 08:45:01;;;;;;;192.93;39.05;;;4.80;99.90;;;;;;4886809;29;20393;-72
2021/04/15 08:47:49;;;;;;;134.77;35.03;;;4.70;99.90;;;;;;4890560;29;20052;-72
2021/04/15 08:50:36;;;;;;;202.40;42.53;;;4.80;99.90;;;;;;4887292;29;20135;-71
2021/04/15 08:53:18;;;;;;;113.28;32.15;;;4.90;99.90;;;;;;4887782;29;20056;-72
2021/04/15 08:55:50;;;;;;;76.28;30.10;;;4.90;99.90;;;;;;4885794;29;20045;-72
2021/04/15 08:58:51;;;;;;;75.65;27.95;;;5.20;99.90;;;;;;4897879;29;20405;-71
2021/04/15 09:01:40;;;;;;;47.05;27.30;;;5.80;99.90;;;;;;4893429;29;20049;-71
2021/04/15 09:04:22;;;;;;;47.78;26.70;;;6.00;99.90;;;;;;4905487;29;20439;-72
2021/04/15 09:07:27;;;;;;;40.33;24.65;;;5.80;99.90;;;;;;4889454;29;20048;-71
2021/04/15 09:10:13;;;;;;;35.58;24.25;;;5.80;99.90;;;;;;4886734;29;20052;-70
2021/04/15 09:13:31;;;;;;;25.35;19.45;;;6.00;99.90;;;;;;4886409;29;20124;-69
2021/04/15 09:16:17;;;;;;;35.15;24.23;;;6.20;99.90;;;;;;4885148;29;20145;-72
2021/04/15 09:18:58;;;;;;;41.45;28.10;;;6.40;99.90;;;;;;4896811;29;20520;-71
2021/04/15 09:21:57;;;;;;;47.13;30.98;;;6.40;99.90;;;;;;4876921;29;20057;-72
2021/04/15 09:24:44;;;;;;;46.88;29.60;;;6.60;99.90;;;;;;4886840;29;20543;-73
2021/04/15 09:27:23;;;;;;;38.90;25.02;;;6.50;99.90;;;;;;4888095;29;20087;-71
2021/04/15 09:29:51;;;;;;;32.13;23.42;;;6.50;99.90;;;;;;4885903;29;20572;-70
2021/04/15 09:32:38;;;;;;;32.45;22.10;;;6.70;99.90;;;;;;4859716;29;20136;-72
2021/04/15 09:35:49;;;;;;;34.17;23.63;;;7.30;99.90;;;;;;4885468;29;20209;-72
2021/04/15 09:38:53;;;;;;;28.77;21.50;;;7.20;99.90;;;;;;4870985;29;20661;-72
2021/04/15 09:41:31;;;;;;;28.10;20.92;;;7.20;99.90;;;;;;4870813;29;20045;-73
2021/04/15 09:44:03;;;;;;;24.48;20.95;;;7.60;99.90;;;;;;4882093;29;20536;-72
2021/04/15 09:47:10;;;;;;;26.95;21.92;;;7.90;99.90;;;;;;4872009;29;20663;-73
2021/04/15 09:50:08;;;;;;;28.80;23.80;;;7.70;99.90;;;;;;4902245;29;20729;-73
2021/04/15 09:52:58;;;;;;;32.03;22.13;;;7.10;99.90;;;;;;4856600;29;20041;-72
2021/04/15 09:55:43;;;;;;;37.40;23.92;;;7.10;99.90;;;;;;4863920;29;20084;-72
2021/04/15 09:58:40;;;;;;;24.45;18.65;;;7.10;99.90;;;;;;4882859;29;20051;-73
2021/04/15 10:01:24;;;;;;;11.13;10.13;;;7.30;99.90;;;;;;4880451;29;20083;-72
2021/04/15 10:04:11;;;;;;;12.52;9.85;;;7.30;99.90;;;;;;4884708;29;20359;-72
2021/04/15 10:06:45;;;;;;;10.80;9.80;;;7.20;99.90;;;;;;4894055;29;20049;-74
2021/04/15 10:09:20;;;;;;;9.17;8.20;;;7.40;99.90;;;;;;4872276;29;20428;-72
2021/04/15 10:12:01;;;;;;;9.65;8.80;;;7.30;99.90;;;;;;4885718;29;20520;-73
2021/04/15 10:14:48;;;;;;;10.93;8.68;;;6.90;99.90;;;;;;4871374;29;20084;-72
2021/04/15 10:17:48;;;;;;;8.43;7.72;;;6.90;99.90;;;;;;4885706;29;20092;-73
2021/04/15 10:20:31;;;;;;;10.43;9.45;;;7.30;99.90;;;;;;4887553;29;20057;-73
2021/04/15 10:23:35;;;;;;;11.07;10.27;;;7.60;99.90;;;;;;4883963;29;20112;-75
2021/04/15 10:26:24;;;;;;;10.10;9.30;;;8.00;99.90;;;;;;4869504;29;20059;-73
2021/04/15 10:29:27;;;;;;;14.05;13.05;;;7.70;99.90;;;;;;4875000;29;20416;-73
2021/04/15 10:32:26;;;;;;;11.95;11.05;;;7.20;99.90;;;;;;4892671;29;20053;-73
2021/04/15 10:35:12;;;;;;;12.95;12.15;;;7.60;99.90;;;;;;4857984;29;20707;-74
2021/04/15 10:41:09;;;;;;;12.05;11.02;;;7.70;99.90;;;;;;4880752;29;20569;-73
2021/04/15 10:43:48;;;;;;;11.52;10.63;;;7.60;99.90;;;;;;4889141;29;20056;-73
2021/04/15 10:46:52;;;;;;;12.20;11.40;;;7.30;99.90;;;;;;4874983;29;20040;-72
2021/04/15 10:50:07;;;;;;;12.60;11.80;;;7.30;99.90;;;;;;4899697;29;20233;-74
2021/04/15 10:53:04;;;;;;;12.25;11.45;;;7.30;99.90;;;;;;4898817;29;20096;-72
2021/04/15 10:55:33;;;;;;;14.70;13.48;;;7.70;99.90;;;;;;4887047;29;20181;-72
2021/04/15 10:58:32;;;;;;;13.93;13.02;;;7.60;99.90;;;;;;4890793;29;20059;-72
2021/04/15 11:01:26;;;;;;;14.38;13.40;;;7.40;99.90;;;;;;4887849;29;20085;-72
2021/04/15 11:03:58;;;;;;;15.05;13.77;;;7.30;99.90;;;;;;4873607;29;20052;-71
2021/04/15 11:06:32;;;;;;;15.15;14.02;;;7.40;99.90;;;;;;4867639;29;20049;-70
2021/04/15 11:09:32;;;;;;;14.80;13.60;;;7.20;99.90;;;;;;4889260;29;20075;-72
2021/04/15 11:12:13;;;;;;;14.25;13.23;;;7.10;99.90;;;;;;4888065;29;20048;-73
2021/04/15 11:14:43;;;;;;;13.13;12.35;;;7.50;99.90;;;;;;4874216;29;20136;-73
2021/04/15 11:17:16;;;;;;;13.00;12.20;;;7.50;99.90;;;;;;4887745;29;20057;-73
2021/04/15 11:19:43;;;;;;;13.13;12.23;;;7.70;99.90;;;;;;4897209;29;20060;-74
2021/04/15 11:22:20;;;;;;;12.10;11.30;;;7.40;99.90;;;;;;4890616;29;20052;-72
2021/04/15 11:24:47;;;;;;;11.43;10.80;;;7.30;99.90;;;;;;4892151;29;20061;-72
2021/04/15 11:27:35;;;;;;;11.27;10.77;;;7.30;99.90;;;;;;4891285;29;20052;-73
2021/04/15 11:30:02;;;;;;;12.68;11.73;;;7.30;99.90;;;;;;4882435;29;20056;-73
2021/04/15 11:32:41;;;;;;;12.52;11.52;;;7.60;99.90;;;;;;4877535;29;20129;-73
2021/04/15 11:35:18;;;;;;;14.07;13.07;;;7.50;99.90;;;;;;4906706;29;20083;-72
2021/04/15 11:37:48;;;;;;;14.02;13.15;;;7.30;99.90;;;;;;4907494;29;20060;-74
2021/04/15 11:40:22;;;;;;;12.48;11.88;;;7.60;99.90;;;;;;4892451;29;20485;-73
2021/04/15 11:42:51;;;;;;;13.40;12.50;;;7.90;99.90;;;;;;4887849;29;20065;-73
2021/04/15 11:45:46;;;;;;;13.85;12.52;;;8.10;99.90;;;;;;4879290;29;20045;-73
2021/04/15 11:48:31;;;;;;;13.27;12.52;;;8.10;99.90;;;;;;4879731;29;20057;-73
2021/04/15 11:51:17;;;;;;;;;;;8.60;99.90;;;;;;4878363;29;20216;-74
2021/04/15 11:53:55;;;;;;;13.43;12.43;;;8.70;99.90;;;;;;4872493;29;19955;-74
2021/04/15 11:56:31;;;;;;;13.32;12.43;;;8.60;99.90;;;;;;4883997;29;20063;-73
2021/04/15 11:59:21;;;;;;;13.85;13.05;;;8.70;99.90;;;;;;4902525;29;20061;-73
2021/04/15 12:01:50;;;;;;;13.25;12.32;;;8.60;99.90;;;;;;4879646;29;20409;-71
2021/04/15 12:04:23;;;;;;;12.65;11.75;;;8.00;99.90;;;;;;4872560;29;20053;-73
2021/04/15 12:07:00;;;;;;;12.63;11.93;;;7.70;99.90;;;;;;4887047;29;20057;-72
2021/04/15 12:09:34;;;;;;;13.35;12.25;;;7.40;99.90;;;;;;4872681;29;20063;-75
2021/04/15 12:12:18;;;;;;;12.50;11.82;;;7.30;99.90;;;;;;4873226;29;20051;-74
2021/04/15 12:14:47;;;;;;;13.23;12.32;;;7.40;99.90;;;;;;4861643;29;20509;-73
2021/04/15 12:17:42;;;;;;;13.00;12.07;;;7.20;99.90;;;;;;4887341;29;20583;-73
2021/04/15 12:20:34;;;;;;;13.30;12.50;;;7.00;99.90;;;;;;4885424;29;20087;-72
2021/04/15 12:23:24;;;;;;;12.30;11.57;;;6.80;99.90;;;;;;4883930;29;20318;-71
2021/04/15 12:26:26;;;;;;;13.48;12.55;;;7.00;99.90;;;;;;4890291;29;20100;-72
2021/04/15 12:29:20;;;;;;;18.40;16.70;;;6.80;99.90;;;;;;4874447;29;20677;-72
2021/04/15 12:32:00;;;;;;;17.70;16.30;;;6.60;99.90;;;;;;4895554;29;20045;-72
2021/04/15 12:34:46;;;;;;;14.13;12.85;;;6.80;99.90;;;;;;4870831;29;20075;-72
2021/04/15 12:37:20;;;;;;;14.48;13.38;;;6.90;99.90;;;;;;4872698;29;20108;-74
2021/04/15 12:39:51;;;;;;;13.20;12.30;;;6.90;99.90;;;;;;4856098;29;20068;-72
2021/04/15 12:42:26;;;;;;;13.43;12.55;;;7.20;99.90;;;;;;4872936;29;20052;-73
2021/04/15 12:45:00;;;;;;;14.38;13.43;;;7.50;99.90;;;;;;4902939;29;20063;-73
2021/04/15 12:47:34;;;;;;;15.73;14.43;;;7.40;99.90;;;;;;4895861;29;20141;-73
2021/04/15 12:50:02;;;;;;;14.52;13.40;;;7.60;99.90;;;;;;4879845;29;20069;-74
2021/04/15 12:52:31;;;;;;;13.75;12.85;;;7.80;99.90;;;;;;4874593;29;20064;-74
2021/04/15 12:55:00;;;;;;;13.07;12.38;;;8.00;99.90;;;;;;4880488;29;20071;-74
2021/04/15 12:57:29;;;;;;;14.20;13.15;;;7.90;99.90;;;;;;4889950;29;20835;-74
2021/04/15 12:59:57;;;;;;;14.80;13.48;;;7.70;99.90;;;;;;4905734;29;20526;-74
2021/04/15 13:02:25;;;;;;;13.82;12.93;;;7.60;99.90;;;;;;4870355;29;20093;-73
2021/04/15 13:04:58;;;;;;;14.40;13.35;;;7.60;99.90;;;;;;4897918;29;20056;-74
2021/04/15 13:07:24;;;;;;;16.30;15.15;;;7.80;99.90;;;;;;4889723;29;20055;-74
2021/04/15 13:10:12;;;;;;;14.13;13.00;;;8.20;99.90;;;;;;4874419;29;20052;-73
2021/04/15 13:12:47;;;;;;;13.45;12.75;;;8.20;99.90;;;;;;4886276;29;20076;-73
2021/04/15 13:15:25;;;;;;;14.90;13.90;;;7.90;99.90;;;;;;4870882;29;20059;-74
2021/04/15 13:17:55;;;;;;;18.17;16.60;;;8.10;99.90;;;;;;4875649;29;20053;-73
2021/04/15 13:20:22;;;;;;;15.95;14.60;;;8.20;99.90;;;;;;4887458;29;20059;-72
2021/04/15 13:23:09;;;;;;;17.25;15.45;;;8.10;99.90;;;;;;4886562;29;20056;-73
2021/04/15 13:25:57;;;;;;;14.45;13.48;;;8.20;99.90;;;;;;4889378;29;20060;-72
2021/04/15 13:28:46;;;;;;;14.75;13.68;;;7.80;99.90;;;;;;4877156;29;20056;-72
2021/04/15 13:31:37;;;;;;;15.32;14.18;;;7.50;99.90;;;;;;4867547;29;20421;-73
2021/04/15 13:34:08;;;;;;;14.60;13.60;;;7.40;99.90;;;;;;4876086;29;20139;-72
2021/04/15 13:36:34;;;;;;;13.68;12.73;;;7.30;99.90;;;;;;4889613;29;20431;-72